createdAt,value
2022-10-18T00:01:11.297Z,101392.80
2022-10-18T00:06:16.264Z,101396.35
2022-10-18T00:08:44.654Z,101391.91
2022-10-18T00:11:13.237Z,101400.10
2022-10-18T00:13:41.574Z,101398.77
2022-10-18T00:16:14.065Z,101396.02
2022-10-18T00:18:43.492Z,101393.92
2022-10-18T00:21:19.701Z,101394.24
2022-10-18T00:23:49.494Z,101389.64
2022-10-18T00:26:27.911Z,101386.56
2022-10-18T00:29:03.631Z,101381.88
2022-10-18T00:31:36.178Z,101370.55
2022-10-18T00:34:10.498Z,101376.04
2022-10-18T00:36:38.953Z,101371.95
2022-10-18T00:39:09.116Z,101370.64
2022-10-18T00:41:38.389Z,101371.92
2022-10-18T00:44:12.577Z,101372.30
2022-10-18T00:46:49.081Z,101365.79
2022-10-18T00:49:30.867Z,101368.88
2022-10-18T00:52:11.565Z,101370.44
2022-10-18T00:54:43.141Z,101370.02
2022-10-18T00:57:13.055Z,101368.79
2022-10-18T00:59:43.277Z,101362.02
2022-10-18T01:02:11.911Z,101359.99
2022-10-18T01:04:40.384Z,101354.98
2022-10-18T01:07:26.911Z,101355.89
2022-10-18T01:10:30.716Z,101355.20
2022-10-18T01:13:25.848Z,101357.02
2022-10-18T01:16:48.475Z,101348.23
2022-10-18T01:19:36.700Z,101349.50
2022-10-18T01:22:28.197Z,101348.77
2022-10-18T01:25:17.716Z,101348.64
2022-10-18T01:28:23.241Z,101346.34
2022-10-18T01:30:57.094Z,101337.92
2022-10-18T01:33:39.893Z,101342.51
2022-10-18T01:36:23.918Z,101341.08
2022-10-18T01:38:57.544Z,101337.23
2022-10-18T01:41:27.944Z,101337.73
2022-10-18T01:44:03.514Z,101337.66
2022-10-18T01:46:33.560Z,101333.11
2022-10-18T01:49:01.802Z,101331.73
2022-10-18T01:51:33.025Z,101324.91
2022-10-18T01:54:01.532Z,101327.10
2022-10-18T01:56:36.873Z,101328.29
2022-10-18T01:59:26.938Z,101326.02
2022-10-18T02:02:38.749Z,101321.97
2022-10-18T02:05:12.948Z,101319.92
2022-10-18T02:08:23.309Z,101318.42
2022-10-18T02:11:04.898Z,101317.89
2022-10-18T02:13:40.145Z,101309.23
2022-10-18T02:16:15.753Z,101319.04
2022-10-18T02:18:58.596Z,101319.67
2022-10-18T02:21:28.981Z,101316.23
2022-10-18T02:23:59.417Z,101317.29
2022-10-18T02:26:28.193Z,101314.48
2022-10-18T02:28:56.938Z,101303.30
2022-10-18T02:31:40.169Z,101300.15
2022-10-18T02:34:22.987Z,101300.15
2022-10-18T02:36:58.405Z,101298.27
2022-10-18T02:39:36.825Z,101297.45
2022-10-18T02:42:09.203Z,101293.86
2022-10-18T02:44:39.116Z,101294.45
2022-10-18T02:47:12.308Z,101292.88
2022-10-18T02:49:40.705Z,101292.09
2022-10-18T02:52:09.489Z,101295.73
2022-10-18T02:54:37.793Z,101293.84
2022-10-18T02:57:06.144Z,101289.81
2022-10-18T02:59:34.422Z,101297.14
2022-10-18T03:02:02.690Z,101293.73
2022-10-18T03:04:31.015Z,101293.03
2022-10-18T03:06:59.337Z,101291.29
2022-10-18T03:09:27.712Z,101293.60
2022-10-18T03:11:56.078Z,101281.94
2022-10-18T03:14:24.375Z,101290.16
2022-10-18T03:16:52.737Z,101290.48
2022-10-18T03:19:21.139Z,101291.36
2022-10-18T03:21:49.497Z,101293.16
2022-10-18T03:24:18.094Z,101293.63
2022-10-18T03:26:46.644Z,101294.90
2022-10-18T03:29:14.952Z,101298.36
2022-10-18T03:31:43.259Z,101295.73
2022-10-18T03:34:11.717Z,101297.91
2022-10-18T03:36:41.526Z,101295.34
2022-10-18T03:39:12.874Z,101299.39
2022-10-18T03:41:41.150Z,101293.49
2022-10-18T03:44:09.437Z,101299.95
2022-10-18T03:46:37.689Z,101299.52
2022-10-18T03:49:05.960Z,101296.30
2022-10-18T03:51:34.299Z,101295.02
2022-10-18T03:54:02.912Z,101293.38
2022-10-18T03:56:31.317Z,101295.36
2022-10-18T03:58:59.604Z,101290.41
2022-10-18T04:01:28.000Z,101288.08
2022-10-18T04:03:56.367Z,101288.33
2022-10-18T04:06:24.668Z,101284.65
2022-10-18T04:08:52.930Z,101278.77
2022-10-18T04:11:21.242Z,101274.09
2022-10-18T04:13:50.534Z,101273.15
2022-10-18T04:16:18.825Z,101276.23
2022-10-18T04:18:47.051Z,101276.02
2022-10-18T04:21:15.323Z,101277.44
2022-10-18T04:23:43.681Z,101278.73
2022-10-18T04:26:12.023Z,101281.31
2022-10-18T04:28:40.454Z,101280.92
2022-10-18T04:31:11.293Z,101285.21
2022-10-18T04:33:39.556Z,101278.33
2022-10-18T04:36:08.040Z,101280.89
2022-10-18T04:38:36.370Z,101281.41
2022-10-18T04:41:04.786Z,101275.81
2022-10-18T04:43:33.110Z,101272.30
2022-10-18T04:46:01.480Z,101268.70
2022-10-18T04:48:29.975Z,101263.05
2022-10-18T04:50:58.268Z,101265.39
2022-10-18T04:53:27.069Z,101258.46
2022-10-18T04:55:57.364Z,101253.95
2022-10-18T04:58:26.868Z,101262.52
2022-10-18T05:00:55.480Z,101260.79
2022-10-18T05:03:24.438Z,101258.63
2022-10-18T05:06:08.281Z,101260.79
2022-10-18T05:08:38.812Z,101261.99
2022-10-18T05:11:07.715Z,101258.02
2022-10-18T05:13:38.454Z,101259.85
2022-10-18T05:16:07.493Z,101262.35
2022-10-18T05:18:36.068Z,101261.49
2022-10-18T05:21:05.131Z,101264.17
2022-10-18T05:23:33.870Z,101249.40
2022-10-18T05:26:06.776Z,101258.37
2022-10-18T05:28:40.441Z,101264.05
2022-10-18T05:31:11.974Z,101262.17
2022-10-18T05:33:40.451Z,101260.44
2022-10-18T05:36:09.479Z,101252.77
2022-10-18T05:38:48.666Z,101256.97
2022-10-18T05:41:16.982Z,101246.46
2022-10-18T05:43:45.421Z,101247.54
2022-10-18T05:46:15.664Z,101251.29
2022-10-18T05:48:49.394Z,101238.35
2022-10-18T05:51:20.569Z,101248.17
2022-10-18T05:53:48.857Z,101246.21
2022-10-18T05:56:17.473Z,101252.55
2022-10-18T05:58:50.913Z,101252.98
2022-10-18T06:01:19.683Z,101251.48
2022-10-18T06:03:48.374Z,101249.63
2022-10-18T06:06:17.060Z,101241.64
2022-10-18T06:08:45.405Z,101239.65
2022-10-18T06:11:17.292Z,101240.73
2022-10-18T06:13:48.506Z,101245.14
2022-10-18T06:16:20.731Z,101242.55
2022-10-18T06:18:53.044Z,101246.70
2022-10-18T06:21:22.667Z,101246.11
2022-10-18T06:23:52.331Z,101247.84
2022-10-18T06:26:20.732Z,101245.88
2022-10-18T06:28:49.505Z,101247.81
2022-10-18T06:31:18.649Z,101244.91
2022-10-18T06:33:47.540Z,101249.20
2022-10-18T06:36:19.301Z,101247.77
2022-10-18T06:38:56.224Z,101248.08
2022-10-18T06:41:24.611Z,101240.28
2022-10-18T06:43:57.699Z,101236.57
2022-10-18T06:46:28.439Z,101245.01
2022-10-18T06:48:58.289Z,101244.73
2022-10-18T06:51:26.731Z,101242.06
2022-10-18T06:54:13.014Z,101242.33
2022-10-18T06:56:43.833Z,101228.86
2022-10-18T06:59:12.630Z,101226.17
2022-10-18T07:01:42.034Z,101229.37
2022-10-18T07:04:11.106Z,101230.77
2022-10-18T07:06:40.067Z,101228.20
2022-10-18T07:09:09.317Z,101226.42
2022-10-18T07:11:37.772Z,101229.36
2022-10-18T07:14:06.962Z,101227.07
2022-10-18T07:16:36.310Z,101222.82
2022-10-18T07:19:04.759Z,101220.42
2022-10-18T07:21:33.178Z,101218.45
2022-10-18T07:24:01.603Z,101217.66
2022-10-18T07:26:33.404Z,101219.73
2022-10-18T07:29:13.662Z,101218.33
2022-10-18T07:31:42.576Z,101219.42
2022-10-18T07:34:13.622Z,101206.33
2022-10-18T07:36:42.589Z,101210.34
2022-10-18T07:39:11.307Z,101214.02
2022-10-18T07:41:40.468Z,101209.23
2022-10-18T07:44:09.822Z,101206.61
2022-10-18T07:46:38.465Z,101207.11
2022-10-18T07:49:08.163Z,101205.09
2022-10-18T07:51:36.790Z,101206.08
2022-10-18T07:54:05.129Z,101199.56
2022-10-18T07:56:33.520Z,101199.86
2022-10-18T07:59:02.157Z,101201.55
2022-10-18T08:01:30.652Z,101199.98
2022-10-18T08:04:06.914Z,101196.76
2022-10-18T08:06:35.961Z,101181.06
2022-10-18T08:09:04.504Z,101184.66
2022-10-18T08:11:32.874Z,101181.76
2022-10-18T08:14:02.058Z,101175.55
2022-10-18T08:19:01.006Z,101169.47
2022-10-18T08:21:29.307Z,101170.39
2022-10-18T08:23:57.609Z,101166.48
2022-10-18T08:26:25.920Z,101163.74
2022-10-18T08:29:09.817Z,101160.91
2022-10-18T08:31:42.834Z,101159.64
2022-10-18T08:34:12.962Z,101151.14
2022-10-18T08:36:47.060Z,101153.55
2022-10-18T08:39:15.469Z,101150.86
2022-10-18T08:41:58.990Z,101147.90
2022-10-18T08:44:31.975Z,101139.63
2022-10-18T08:47:15.187Z,101137.38
2022-10-18T08:49:58.447Z,101136.91
2022-10-18T08:52:53.474Z,101133.88
2022-10-18T08:55:25.066Z,101129.44
2022-10-18T08:57:54.790Z,101120.01
2022-10-18T09:00:29.942Z,101123.66
2022-10-18T09:03:22.773Z,101124.08
2022-10-18T09:06:35.871Z,101122.38
2022-10-18T09:09:09.717Z,101116.00
2022-10-18T09:12:17.724Z,101119.25
2022-10-18T09:15:14.214Z,101118.09
2022-10-18T09:18:13.486Z,101115.27
2022-10-18T09:20:53.929Z,101108.79
2022-10-18T09:23:47.223Z,101109.26
2022-10-18T09:26:23.670Z,101100.06
2022-10-18T09:29:27.873Z,101086.58
2022-10-18T09:32:17.257Z,101101.77
2022-10-18T09:35:06.235Z,101094.04
2022-10-18T09:37:35.198Z,101087.95
2022-10-18T09:40:27.602Z,101080.98
2022-10-18T09:43:19.054Z,101073.97
2022-10-18T09:45:48.760Z,101066.63
2022-10-18T09:48:31.397Z,101060.28
2022-10-18T09:51:12.327Z,101056.96
2022-10-18T09:54:00.323Z,101060.95
2022-10-18T09:56:57.647Z,101052.09
2022-10-18T09:59:35.016Z,101055.20
2022-10-18T10:02:04.542Z,101054.74
2022-10-18T10:04:33.413Z,101045.46
2022-10-18T10:07:02.820Z,101043.45
2022-10-18T10:09:41.137Z,101038.72
2022-10-18T10:12:33.477Z,101044.11
2022-10-18T10:15:29.696Z,101041.69
2022-10-18T10:18:18.699Z,101030.63
2022-10-18T10:21:00.440Z,101034.16
2022-10-18T10:23:37.447Z,101033.65
2022-10-18T10:26:25.481Z,101015.23
2022-10-18T10:28:54.397Z,101007.58
2022-10-18T10:31:25.662Z,101007.82
2022-10-18T10:34:05.096Z,101004.36
2022-10-18T10:36:35.279Z,101002.50
2022-10-18T10:39:18.901Z,101000.31
2022-10-18T10:41:56.890Z,100985.79
2022-10-18T10:44:31.882Z,100984.63
2022-10-18T10:47:00.528Z,100974.02
2022-10-18T10:49:48.983Z,100975.77
2022-10-18T10:52:28.618Z,100971.90
2022-10-18T10:55:06.205Z,100968.27
2022-10-18T10:57:51.040Z,100963.45
2022-10-18T11:00:37.744Z,100955.19
2022-10-18T11:03:34.329Z,100950.62
2022-10-18T11:06:02.777Z,100943.70
2022-10-18T11:08:40.477Z,100944.24
2022-10-18T11:11:28.717Z,100933.76
2022-10-18T11:14:27.975Z,100925.60
2022-10-18T11:17:12.399Z,100929.21
2022-10-18T11:20:24.973Z,100922.03
2022-10-18T11:23:03.821Z,100922.04
2022-10-18T11:25:58.097Z,100918.83
2022-10-18T11:29:27.744Z,100909.77
2022-10-18T11:31:55.989Z,100905.02
2022-10-18T11:34:58.288Z,100897.67
2022-10-18T11:38:14.550Z,100891.11
2022-10-18T11:41:02.419Z,100872.88
2022-10-18T11:44:01.652Z,100882.52
2022-10-18T11:47:08.765Z,100872.14
2022-10-18T11:50:02.305Z,100873.35
2022-10-18T11:52:45.137Z,100864.58
2022-10-18T11:55:53.569Z,100857.57
2022-10-18T11:58:53.793Z,100854.14
2022-10-18T12:01:28.809Z,100854.36
2022-10-18T12:04:08.179Z,100850.02
2022-10-18T12:06:43.596Z,100836.07
2022-10-18T12:09:28.888Z,100819.02
2022-10-18T12:12:42.058Z,100832.91
2022-10-18T12:15:22.490Z,100818.91
2022-10-18T12:17:55.767Z,100828.55
2022-10-18T12:20:41.420Z,100810.99
2022-10-18T12:23:51.760Z,100819.55
2022-10-18T12:26:21.842Z,100810.70
2022-10-18T12:29:03.748Z,100809.97
2022-10-18T12:31:48.270Z,100808.97
2022-10-18T12:34:27.147Z,100802.09
2022-10-18T12:37:19.832Z,100796.79
2022-10-18T12:40:10.231Z,100786.14
2022-10-18T12:42:47.148Z,100782.76
2022-10-18T12:45:32.406Z,100784.66
2022-10-18T12:48:05.974Z,100776.84
2022-10-18T12:50:43.789Z,100774.09
2022-10-18T12:53:24.499Z,100768.45
2022-10-18T12:55:53.984Z,100772.95
2022-10-18T12:58:27.237Z,100762.65
2022-10-18T13:01:02.466Z,100765.15
2022-10-18T13:03:57.195Z,100753.65
2022-10-18T13:06:25.941Z,100757.96
2022-10-18T13:09:21.677Z,100747.35
2022-10-18T13:11:51.481Z,100747.55
2022-10-18T13:14:44.152Z,100746.76
2022-10-18T13:17:34.097Z,100743.15
2022-10-18T13:20:40.901Z,100736.08
2022-10-18T13:23:37.053Z,100728.22
2022-10-18T13:26:54.066Z,100732.14
2022-10-18T13:29:59.342Z,100726.92
2022-10-18T13:32:38.374Z,100721.33
2022-10-18T13:35:38.495Z,100722.14
2022-10-18T13:38:50.586Z,100718.32
2022-10-18T13:44:37.425Z,100700.52
2022-10-18T13:47:05.633Z,100688.84
2022-10-18T13:49:40.032Z,100681.38
2022-10-18T13:52:48.430Z,100685.02
2022-10-18T13:55:19.613Z,100681.13
2022-10-18T13:58:19.417Z,100682.27
2022-10-18T14:01:15.478Z,100677.70
2022-10-18T14:04:00.424Z,100670.85
2022-10-18T14:06:37.385Z,100667.69
2022-10-18T14:09:26.180Z,100663.48
2022-10-18T14:12:27.776Z,100661.29
2022-10-18T14:15:17.229Z,100653.13
2022-10-18T14:17:51.879Z,100647.16
2022-10-18T14:20:55.151Z,100646.96
2022-10-18T14:23:34.875Z,100645.06
2022-10-18T14:26:18.498Z,100643.52
2022-10-18T14:29:03.323Z,100637.46
2022-10-18T14:31:32.169Z,100637.48
2022-10-18T14:34:01.368Z,100629.27
2022-10-18T14:36:39.741Z,100628.05
2022-10-18T14:39:20.092Z,100622.80
2022-10-18T14:41:54.486Z,100625.81
2022-10-18T14:44:29.298Z,100625.13
2022-10-18T14:47:15.448Z,100625.14
2022-10-18T14:49:46.046Z,100620.68
2022-10-18T14:52:26.628Z,100620.17
2022-10-18T14:54:57.000Z,100616.19
2022-10-18T14:57:36.629Z,100605.89
2022-10-18T15:00:09.167Z,100608.27
2022-10-18T15:02:39.023Z,100614.92
2022-10-18T15:05:27.975Z,100613.13
2022-10-18T15:08:00.221Z,100607.64
2022-10-18T15:10:34.770Z,100602.10
2022-10-18T15:13:10.877Z,100598.38
2022-10-18T15:15:41.021Z,100596.36
2022-10-18T15:18:24.154Z,100595.75
2022-10-18T15:21:24.577Z,100593.37
2022-10-18T15:23:55.242Z,100590.94
2022-10-18T15:26:30.284Z,100582.68
2022-10-18T15:29:01.670Z,100583.33
2022-10-18T15:31:37.736Z,100579.96
2022-10-18T15:34:27.925Z,100580.40
2022-10-18T15:36:57.417Z,100573.20
2022-10-18T15:39:31.467Z,100576.16
2022-10-18T15:42:03.320Z,100577.81
2022-10-18T15:44:51.653Z,100578.40
2022-10-18T15:47:25.158Z,100578.63
2022-10-18T15:49:56.364Z,100573.91
2022-10-18T15:52:39.318Z,100569.60
2022-10-18T15:55:29.527Z,100563.23
2022-10-18T15:58:12.700Z,100560.53
2022-10-18T16:00:43.366Z,100560.80
2022-10-18T16:03:12.102Z,100558.34
2022-10-18T16:05:41.153Z,100556.52
2022-10-18T16:08:44.811Z,100552.95
2022-10-18T16:11:17.277Z,100549.56
2022-10-18T16:13:46.002Z,100548.66
2022-10-18T16:16:23.707Z,100546.65
2022-10-18T16:18:53.234Z,100550.95
2022-10-18T16:21:30.453Z,100543.93
2022-10-18T16:23:59.204Z,100546.46
2022-10-18T16:26:29.069Z,100544.26
2022-10-18T16:28:58.961Z,100540.05
2022-10-18T16:31:31.297Z,100545.04
2022-10-18T16:34:01.066Z,100542.08
2022-10-18T16:36:32.757Z,100541.59
2022-10-18T16:39:07.949Z,100538.59
2022-10-18T16:41:36.225Z,100540.20
2022-10-18T16:44:04.653Z,100537.33
2022-10-18T16:46:34.945Z,100529.71
2022-10-18T16:49:05.169Z,100533.10
2022-10-18T16:51:33.665Z,100527.14
2022-10-18T16:54:01.971Z,100530.98
2022-10-18T16:56:33.422Z,100531.41
2022-10-18T16:59:02.598Z,100531.75
2022-10-18T17:01:30.926Z,100529.59
2022-10-18T17:03:59.254Z,100530.15
2022-10-18T17:06:30.718Z,100528.20
2022-10-18T17:09:00.541Z,100524.82
2022-10-18T17:11:29.816Z,100525.05
2022-10-18T17:13:58.356Z,100520.88
2022-10-18T17:16:33.647Z,100520.61
2022-10-18T17:19:06.415Z,100520.89
2022-10-18T17:21:35.368Z,100509.65
2022-10-18T17:24:06.468Z,100513.23
2022-10-18T17:26:35.138Z,100510.17
2022-10-18T17:29:07.292Z,100509.77
2022-10-18T17:31:36.232Z,100501.79
2022-10-18T17:34:05.188Z,100499.36
2022-10-18T17:36:34.178Z,100498.73
2022-10-18T17:39:03.404Z,100495.58
2022-10-18T17:41:32.183Z,100494.58
2022-10-18T17:44:04.451Z,100490.75
2022-10-18T17:46:33.067Z,100488.91
2022-10-18T17:49:01.575Z,100486.72
2022-10-18T17:51:30.160Z,100484.05
2022-10-18T17:53:58.615Z,100479.91
2022-10-18T17:56:31.291Z,100479.52
2022-10-18T17:59:00.462Z,100473.20
2022-10-18T18:01:28.991Z,100469.29
2022-10-18T18:03:59.978Z,100463.02
2022-10-18T18:06:31.700Z,100457.80
2022-10-18T18:09:05.218Z,100447.14
2022-10-18T18:11:35.343Z,100442.70
2022-10-18T18:14:09.419Z,100437.88
2022-10-18T18:16:41.037Z,100436.59
2022-10-18T18:19:10.363Z,100435.98
2022-10-18T18:21:39.584Z,100432.72
2022-10-18T18:24:08.397Z,100419.95
2022-10-18T18:26:38.031Z,100422.72
2022-10-18T18:29:07.000Z,100416.52
2022-10-18T18:31:40.040Z,100411.20
2022-10-18T18:34:11.098Z,100406.27
2022-10-18T18:36:39.861Z,100410.48
2022-10-18T18:39:09.279Z,100413.69
2022-10-18T18:41:38.614Z,100415.61
2022-10-18T18:44:06.991Z,100414.32
2022-10-18T18:46:38.865Z,100413.84
2022-10-18T18:49:08.289Z,100411.92
2022-10-18T18:51:40.342Z,100399.50
2022-10-18T18:54:10.518Z,100406.05
2022-10-18T18:56:38.868Z,100401.20
2022-10-18T18:59:07.847Z,100397.64
2022-10-18T19:01:38.005Z,100391.29
2022-10-18T19:04:09.100Z,100388.50
2022-10-18T19:06:43.797Z,100388.34
2022-10-18T19:09:20.564Z,100385.05
2022-10-18T19:11:54.096Z,100383.91
2022-10-18T19:14:25.215Z,100373.04
2022-10-18T19:16:58.923Z,100374.23
2022-10-18T19:19:31.397Z,100383.71
2022-10-18T19:22:03.947Z,100381.21
2022-10-18T19:24:32.523Z,100378.33
2022-10-18T19:27:11.957Z,100374.30
2022-10-18T19:29:40.665Z,100371.75
2022-10-18T19:32:15.150Z,100370.40
2022-10-18T19:34:46.180Z,100364.27
2022-10-18T19:37:15.887Z,100360.16
2022-10-18T19:39:44.149Z,100362.10
2022-10-18T19:42:18.585Z,100361.97
2022-10-18T19:44:50.777Z,100352.02
2022-10-18T19:47:20.651Z,100349.95
2022-10-18T19:49:48.907Z,100342.33
2022-10-18T19:52:17.142Z,100337.46
2022-10-18T19:54:45.532Z,100331.77
2022-10-18T19:57:13.910Z,100326.99
2022-10-18T19:59:42.263Z,100310.64
2022-10-18T20:02:15.305Z,100314.02
2022-10-18T20:04:43.581Z,100312.94
2022-10-18T20:07:11.877Z,100312.48
2022-10-18T20:09:40.013Z,100310.98
2022-10-18T20:12:08.233Z,100310.02
2022-10-18T20:14:36.502Z,100311.11
2022-10-18T20:17:05.996Z,100305.67
2022-10-18T20:19:34.245Z,100298.27
2022-10-18T20:22:02.416Z,100298.73
2022-10-18T20:24:30.891Z,100293.80
2022-10-18T20:26:59.178Z,100287.14
2022-10-18T20:29:27.407Z,100286.80
2022-10-18T20:31:55.887Z,100285.22
2022-10-18T20:34:26.227Z,100279.35
2022-10-18T20:36:56.102Z,100277.35
2022-10-18T20:39:24.647Z,100270.43
2022-10-18T20:41:52.901Z,100271.95
2022-10-18T20:44:22.759Z,100264.23
2022-10-18T20:46:51.217Z,100261.46
2022-10-18T20:49:22.434Z,100254.71
2022-10-18T20:51:50.707Z,100255.80
2022-10-18T20:54:19.074Z,100247.04
2022-10-18T20:56:47.498Z,100244.60
2022-10-18T20:59:15.765Z,100241.05
2022-10-18T21:01:44.084Z,100240.52
2022-10-18T21:04:12.534Z,100235.16
2022-10-18T21:06:43.964Z,100237.42
2022-10-18T21:09:16.112Z,100228.29
2022-10-18T21:11:48.447Z,100228.19
2022-10-18T21:14:20.162Z,100222.29
2022-10-18T21:16:50.781Z,100219.70
2022-10-18T21:19:27.257Z,100209.80
2022-10-18T21:21:57.700Z,100208.63
2022-10-18T21:24:26.986Z,100209.51
2022-10-18T21:26:55.305Z,100207.48
2022-10-18T21:29:25.056Z,100200.39
2022-10-18T21:31:55.473Z,100195.31
2022-10-18T21:34:24.083Z,100189.85
2022-10-18T21:36:52.497Z,100185.70
2022-10-18T21:41:52.813Z,100183.64
2022-10-18T21:44:21.282Z,100180.30
2022-10-18T21:46:50.993Z,100182.27
2022-10-18T21:49:19.513Z,100180.51
2022-10-18T21:51:48.061Z,100172.76
2022-10-18T21:54:17.077Z,100171.42
2022-10-18T21:56:45.928Z,100162.38
2022-10-18T21:59:14.485Z,100161.89
2022-10-18T22:01:44.428Z,100154.56
2022-10-18T22:04:24.926Z,100154.48
2022-10-18T22:06:53.329Z,100143.42
2022-10-18T22:09:22.277Z,100142.14
2022-10-18T22:11:53.647Z,100139.72
2022-10-18T22:14:22.759Z,100138.17
2022-10-18T22:16:51.292Z,100123.83
2022-10-18T22:19:20.463Z,100132.05
2022-10-18T22:21:49.183Z,100129.18
2022-10-18T22:24:18.093Z,100131.27
2022-10-18T22:26:47.174Z,100129.57
2022-10-18T22:29:19.556Z,100123.02
2022-10-18T22:31:53.260Z,100123.15
2022-10-18T22:34:26.360Z,100119.11
2022-10-18T22:36:55.625Z,100121.63
2022-10-18T22:39:24.836Z,100120.84
2022-10-18T22:41:56.584Z,100116.23
2022-10-18T22:44:25.485Z,100112.23
2022-10-18T22:46:53.821Z,100108.86
2022-10-18T22:49:22.119Z,100115.16
2022-10-18T22:51:50.421Z,100106.52
2022-10-18T22:54:18.837Z,100112.23
2022-10-18T22:56:47.173Z,100107.70
2022-10-18T22:59:15.424Z,100104.95
2022-10-18T23:01:43.750Z,100102.38
2022-10-18T23:04:12.389Z,100100.89
2022-10-18T23:06:41.096Z,100102.12
2022-10-18T23:09:11.557Z,100097.13
2022-10-18T23:11:39.903Z,100098.77
2022-10-18T23:14:08.366Z,100101.65
2022-10-18T23:16:36.780Z,100097.66
2022-10-18T23:19:05.445Z,100099.77
2022-10-18T23:21:34.570Z,100098.78
2022-10-18T23:24:03.585Z,100095.31
2022-10-18T23:26:33.041Z,100097.88
2022-10-18T23:29:01.401Z,100093.02
2022-10-18T23:31:33.315Z,100091.90
2022-10-18T23:34:05.018Z,100085.02
2022-10-18T23:36:34.397Z,100081.89
2022-10-18T23:39:04.010Z,100083.61
2022-10-18T23:41:32.541Z,100081.20
2022-10-18T23:44:00.901Z,100080.36
2022-10-18T23:46:29.163Z,100081.66
2022-10-18T23:48:57.519Z,100082.61
2022-10-18T23:51:25.898Z,100077.97
2022-10-18T23:53:54.542Z,100076.58
2022-10-18T23:56:24.432Z,100077.54
2022-10-18T23:58:52.810Z,100074.76
